aviador You're here:

KGTB Decoded Metar

FORT DRUM in NY, USA
Report Time2018-04-21 03:56:00
UTC Time2018-04-21 04:02:13
Flight Rules vfr VFR
Wind240° at 07 kt
W.Decomp.*RWY 26: 6.9 kt HW 0.9 kt LCW
RWY 21: 5.1 kt HW 4.8 kt RCW
RWY 33: 1.6 kt HW 6.8 kt LCW
W.Rank240° ranks 4
Current wind is below 240° avg. (8.8)
Visibility9999 m
Phenomena:N/A
Clouds:N/A
Expected CloudBase > 1,200 ft AGL from Temp-Dew spread
CeilingNone
Temp01°C (ISA -13)
Dew Point-2°C (81% RH)
AAT-3.8°C
QNH1027 hPa
Density Alt-1,263 ft
Elevation679 ft
Report Wrong Elevation
Raw Report
KGTB 210356Z AUTO 24007KT 10SM CLR 01/M02 A3032 RMK AO2 SLP276
T00131019=

Extra information for KGTB:More info

Metar Taf Metar & Taf Last 4 Metars F.Rules Stats Wind Profile Meteogram Temp Stats Airport Information Weather charts Add Link Nearby VenuesMetar ALERT Operation Metar Decoded Social comments

AIRNAV info for KGTB